createdAt,value
2016-03-04T00:00:22.400Z,5.2
2016-03-04T00:01:22.325Z,5.12
2016-03-04T00:02:22.266Z,5.2
2016-03-04T00:03:22.253Z,5.12
2016-03-04T00:04:22.161Z,5.2
2016-03-04T00:05:22.163Z,5.23
2016-03-04T00:06:21.995Z,5.18
2016-03-04T00:07:21.966Z,5.15
2016-03-04T00:08:21.907Z,4.94
2016-03-04T00:09:21.832Z,5.1
2016-03-04T00:10:21.772Z,5.12
2016-03-04T00:11:21.759Z,5.11
2016-03-04T00:12:21.683Z,5.1
2016-03-04T00:13:21.607Z,5.15
2016-03-04T00:14:21.985Z,5.08
2016-03-04T00:15:21.566Z,5.12
2016-03-04T00:16:21.428Z,5.1
2016-03-04T00:17:21.368Z,5.17
2016-03-04T00:18:21.371Z,5.18
2016-03-04T00:19:21.248Z,5.23
2016-03-04T00:20:21.220Z,5.2
2016-03-04T00:21:21.161Z,5.14
2016-03-04T00:22:21.178Z,5.18
2016-03-04T00:23:21.056Z,5.18
2016-03-04T00:24:20.997Z,5.2
2016-03-04T00:25:20.906Z,5.14
2016-03-04T00:26:20.956Z,5.15
2016-03-04T00:27:20.801Z,5.2
2016-03-04T00:28:20.773Z,5.21
2016-03-04T00:29:20.682Z,5.12
2016-03-04T00:30:20.653Z,5.18
2016-03-04T00:31:20.441Z,5.11
2016-03-04T00:32:20.496Z,5.11
2016-03-04T00:33:20.468Z,5.14
2016-03-04T00:34:20.377Z,5.14
2016-03-04T00:35:20.349Z,5.11
2016-03-04T00:36:20.288Z,5.1
2016-03-04T00:37:20.259Z,5.08
2016-03-04T00:38:20.153Z,5.1
2016-03-04T00:39:20.094Z,5.11
2016-03-04T00:40:20.096Z,5.11
2016-03-04T00:41:20.006Z,5.08
2016-03-04T00:42:19.961Z,5.12
2016-03-04T00:43:19.870Z,5.08
2016-03-04T00:44:19.841Z,5.12
2016-03-04T00:45:19.812Z,5.05
2016-03-04T00:46:19.769Z,4.99
2016-03-04T00:47:19.725Z,5.05
2016-03-04T00:48:19.571Z,5.05
2016-03-04T00:49:19.589Z,5.05
2016-03-04T00:50:19.514Z,4.99
2016-03-04T00:51:19.438Z,5.07
2016-03-04T00:52:19.348Z,5
2016-03-04T00:53:19.303Z,4.96
2016-03-04T00:54:19.259Z,4.9
2016-03-04T00:55:19.262Z,5.02
2016-03-04T00:56:19.140Z,5.02
2016-03-04T00:57:19.049Z,5.04
2016-03-04T00:58:19.098Z,4.89
2016-03-04T00:59:18.961Z,4.92
2016-03-04T01:00:18.901Z,4.93
2016-03-04T01:01:18.888Z,5.02
2016-03-04T01:02:18.810Z,4.9
2016-03-04T01:03:18.719Z,4.96
2016-03-04T01:04:18.691Z,5
2016-03-04T01:05:18.646Z,4.97
2016-03-04T01:06:18.572Z,4.92
2016-03-04T01:07:18.495Z,4.94
2016-03-04T01:08:18.436Z,4.94
2016-03-04T01:09:18.375Z,4.93
2016-03-04T01:10:18.332Z,4.82
2016-03-04T01:11:18.147Z,4.9
2016-03-04T01:12:18.228Z,4.8
2016-03-04T01:13:17.965Z,4.84
2016-03-04T01:14:18.077Z,4.78
2016-03-04T01:15:18.049Z,4.78
2016-03-04T01:16:17.957Z,4.8
2016-03-04T01:17:17.976Z,4.82
2016-03-04T01:18:17.854Z,4.78
2016-03-04T01:19:17.793Z,4.8
2016-03-04T01:20:16.998Z,4.82
2016-03-04T01:21:17.658Z,4.8
2016-03-04T01:22:17.660Z,4.78
2016-03-04T01:23:17.585Z,4.84
2016-03-04T01:24:17.509Z,4.8
2016-03-04T01:25:17.418Z,4.8
2016-03-04T01:26:17.390Z,4.84
2016-03-04T01:27:17.331Z,4.8
2016-03-04T01:28:17.317Z,4.74
2016-03-04T01:29:17.273Z,4.82
2016-03-04T01:30:17.198Z,4.71
2016-03-04T01:31:17.106Z,4.78
2016-03-04T01:32:17.062Z,4.66
2016-03-04T01:33:16.972Z,4.73
2016-03-04T01:34:16.912Z,4.67
2016-03-04T01:35:16.883Z,4.62
2016-03-04T01:36:16.808Z,4.71
2016-03-04T01:37:16.747Z,4.68
2016-03-04T01:38:16.657Z,4.6
2016-03-04T01:39:16.612Z,4.68
2016-03-04T01:40:16.584Z,4.63
2016-03-04T01:41:16.493Z,4.66
2016-03-04T01:42:16.464Z,4.62
2016-03-04T01:43:16.373Z,4.66
2016-03-04T01:44:16.360Z,4.56
2016-03-04T01:45:16.285Z,4.63
2016-03-04T01:46:16.225Z,4.59
2016-03-04T01:47:16.166Z,4.59
2016-03-04T01:48:16.105Z,4.66
2016-03-04T01:49:16.046Z,4.53
2016-03-04T01:50:15.986Z,4.5
2016-03-04T01:51:15.926Z,4.53
2016-03-04T01:52:15.881Z,4.53
2016-03-04T01:53:15.807Z,4.5
2016-03-04T01:54:15.747Z,4.53
2016-03-04T01:55:15.687Z,4.5
2016-03-04T01:56:15.611Z,4.44
2016-03-04T01:57:15.583Z,4.5
2016-03-04T01:58:15.507Z,4.52
2016-03-04T01:59:15.509Z,4.52
2016-03-04T02:00:15.372Z,4.44
2016-03-04T02:01:15.328Z,4.45
2016-03-04T02:02:15.268Z,4.48
2016-03-04T02:03:15.208Z,4.42
2016-03-04T02:04:15.181Z,4.41
2016-03-04T02:05:15.089Z,4.44
2016-03-04T02:06:14.872Z,4.45
2016-03-04T02:07:15.016Z,4.4
2016-03-04T02:08:14.955Z,4.4
2016-03-04T02:09:14.880Z,4.38
2016-03-04T02:10:14.805Z,4.45
2016-03-04T02:11:14.729Z,4.32
2016-03-04T02:12:14.716Z,4.31
2016-03-04T02:13:14.672Z,4.41
2016-03-04T02:14:14.456Z,4.49
2016-03-04T02:15:14.537Z,4.35
2016-03-04T02:16:14.477Z,4.49
2016-03-04T02:17:14.387Z,4.35
2016-03-04T02:18:14.357Z,4.38
2016-03-04T02:19:14.298Z,4.32
2016-03-04T02:20:14.238Z,4.42
2016-03-04T02:21:14.162Z,4.38
2016-03-04T02:22:14.118Z,4.35
2016-03-04T02:23:14.073Z,4.34
2016-03-04T02:24:13.983Z,4.38
2016-03-04T02:25:14.017Z,4.35
2016-03-04T02:26:13.895Z,4.38
2016-03-04T02:27:13.824Z,4.42
2016-03-04T02:28:13.733Z,4.4
2016-03-04T02:29:13.563Z,4.31
2016-03-04T02:30:13.660Z,4.4
2016-03-04T02:31:13.585Z,4.24
2016-03-04T02:32:13.510Z,4.37
2016-03-04T02:33:13.496Z,4.37
2016-03-04T02:34:13.421Z,4.35
2016-03-04T02:35:13.377Z,4.37
2016-03-04T02:36:13.317Z,4.37
2016-03-04T02:37:13.241Z,4.34
2016-03-04T02:38:13.166Z,4.26
2016-03-04T02:39:13.106Z,4.28
2016-03-04T02:40:13.077Z,4.22
2016-03-04T02:41:13.002Z,4.2
2016-03-04T02:42:12.942Z,4.24
2016-03-04T02:43:12.867Z,4.32
2016-03-04T02:44:12.885Z,4.31
2016-03-04T02:45:12.778Z,4.24
2016-03-04T02:46:12.687Z,4.28
2016-03-04T02:47:12.643Z,4.28
2016-03-04T02:48:12.583Z,4.2
2016-03-04T02:49:12.539Z,4.26
2016-03-04T02:50:12.495Z,4.16
2016-03-04T02:51:12.436Z,4.22
2016-03-04T02:52:12.344Z,4.17
2016-03-04T02:53:12.331Z,4.16
2016-03-04T02:54:12.255Z,4.16
2016-03-04T02:55:12.196Z,4.23
2016-03-04T02:56:12.136Z,4.22
2016-03-04T02:57:12.061Z,4.2
2016-03-04T02:58:12.001Z,4.22
2016-03-04T02:59:11.941Z,4.16
2016-03-04T03:00:11.897Z,4.1
2016-03-04T03:01:11.822Z,4.06
2016-03-04T03:02:11.762Z,4.12
2016-03-04T03:03:11.733Z,4.1
2016-03-04T03:04:11.642Z,4.13
2016-03-04T03:05:11.582Z,4.13
2016-03-04T03:06:11.522Z,4.06
2016-03-04T03:07:11.478Z,4.08
2016-03-04T03:08:11.402Z,4.12
2016-03-04T03:09:11.359Z,4.08
2016-03-04T03:10:11.299Z,4.13
2016-03-04T03:11:11.240Z,4.14
2016-03-04T03:12:11.179Z,4.08
2016-03-04T03:13:11.119Z,4.02
2016-03-04T03:14:11.059Z,4.06
2016-03-04T03:15:11.001Z,4.04
2016-03-04T03:16:10.956Z,4.01
2016-03-04T03:17:10.895Z,3.99
2016-03-04T03:18:10.836Z,4.04
2016-03-04T03:19:10.776Z,3.99
2016-03-04T03:20:10.716Z,3.94
2016-03-04T03:21:10.656Z,3.96
2016-03-04T03:22:10.581Z,3.94
2016-03-04T03:23:10.522Z,4.01
2016-03-04T03:24:10.492Z,3.96
2016-03-04T03:25:10.417Z,3.96
2016-03-04T03:26:10.341Z,4.01
2016-03-04T03:27:10.282Z,3.96
2016-03-04T03:28:10.223Z,3.95
2016-03-04T03:29:10.194Z,4.01
2016-03-04T03:30:10.103Z,3.96
2016-03-04T03:31:10.074Z,3.94
2016-03-04T03:32:10.014Z,3.96
2016-03-04T03:33:09.954Z,3.95
2016-03-04T03:34:09.894Z,3.95
2016-03-04T03:35:09.835Z,3.98
2016-03-04T03:36:09.760Z,3.98
2016-03-04T03:37:09.715Z,3.95
2016-03-04T03:38:09.640Z,3.98
2016-03-04T03:39:09.595Z,3.88
2016-03-04T03:40:09.535Z,3.91
2016-03-04T03:41:09.446Z,3.88
2016-03-04T03:42:09.401Z,3.92
2016-03-04T03:43:09.341Z,3.88
2016-03-04T03:44:09.296Z,3.88
2016-03-04T03:45:09.237Z,3.87
2016-03-04T03:46:09.176Z,3.94
2016-03-04T03:47:09.132Z,3.86
2016-03-04T03:48:09.042Z,3.86
2016-03-04T03:49:08.998Z,3.94
2016-03-04T03:50:08.938Z,3.81
2016-03-04T03:51:08.878Z,3.87
2016-03-04T03:52:08.849Z,3.8
2016-03-04T03:53:08.773Z,3.81
2016-03-04T03:54:08.699Z,3.87
2016-03-04T03:55:08.669Z,3.83
2016-03-04T03:56:08.578Z,3.81
2016-03-04T03:57:08.550Z,3.74
2016-03-04T03:58:08.459Z,3.74
2016-03-04T03:59:08.446Z,3.83
2016-03-04T04:00:08.355Z,3.84
2016-03-04T04:01:08.327Z,3.77
2016-03-04T04:02:08.235Z,3.73
2016-03-04T04:03:08.160Z,3.66
2016-03-04T04:04:08.100Z,3.7
2016-03-04T04:05:08.071Z,3.7
2016-03-04T04:06:07.996Z,3.73
2016-03-04T04:07:07.952Z,3.63
2016-03-04T04:08:07.908Z,3.59
2016-03-04T04:09:07.833Z,3.56
2016-03-04T04:10:07.757Z,3.53
2016-03-04T04:11:07.713Z,3.51
2016-03-04T04:12:07.637Z,3.58
2016-03-04T04:13:07.577Z,3.55
2016-03-04T04:14:07.517Z,3.44
2016-03-04T04:15:07.458Z,3.41
2016-03-04T04:16:07.415Z,3.42
2016-03-04T04:17:07.370Z,3.34
2016-03-04T04:18:07.279Z,3.41
2016-03-04T04:19:07.250Z,3.37
2016-03-04T04:20:07.159Z,3.4
2016-03-04T04:21:07.130Z,3.36
2016-03-04T04:22:07.056Z,3.37
2016-03-04T04:23:06.995Z,3.32
2016-03-04T04:24:06.936Z,3.31
2016-03-04T04:25:06.891Z,3.31
2016-03-04T04:26:06.816Z,3.29
2016-03-04T04:27:06.771Z,3.26
2016-03-04T04:28:06.697Z,3.29
2016-03-04T04:29:06.653Z,3.29
2016-03-04T04:30:06.608Z,3.23
2016-03-04T04:31:06.532Z,3.18
2016-03-04T04:32:06.457Z,3.31
2016-03-04T04:33:06.413Z,3.21
2016-03-04T04:34:06.368Z,3.22
2016-03-04T04:35:06.293Z,3.25
2016-03-04T04:36:06.233Z,3.25
2016-03-04T04:37:06.189Z,3.21
2016-03-04T04:38:06.113Z,3.18
2016-03-04T04:39:06.069Z,3.25
2016-03-04T04:40:05.821Z,3.16
2016-03-04T04:41:05.934Z,3.19
2016-03-04T04:42:05.859Z,3.13
2016-03-04T04:43:05.829Z,3.16
2016-03-04T04:44:05.771Z,3.13
2016-03-04T04:45:05.663Z,3.03
2016-03-04T04:46:05.635Z,3.13
2016-03-04T04:47:05.575Z,3.1
2016-03-04T04:48:05.547Z,3.07
2016-03-04T04:49:05.456Z,3.13
2016-03-04T04:50:05.381Z,3.11
2016-03-04T04:51:05.336Z,3.13
2016-03-04T04:52:05.276Z,3.13
2016-03-04T04:53:05.201Z,3.13
2016-03-04T04:54:05.406Z,3.1
2016-03-04T04:55:04.985Z,3.18
2016-03-04T04:56:05.193Z,3.11
2016-03-04T04:57:05.024Z,3.11
2016-03-04T04:58:04.916Z,3.1
2016-03-04T04:59:04.888Z,3.07
2016-03-04T05:00:04.890Z,3.21
2016-03-04T05:01:04.768Z,3.22
2016-03-04T05:02:04.692Z,3.23
2016-03-04T05:03:04.601Z,3.26
2016-03-04T05:04:04.574Z,3.25
2016-03-04T05:05:04.529Z,3.21
2016-03-04T05:06:04.438Z,3.36
2016-03-04T05:07:04.393Z,3.34
2016-03-04T05:08:04.318Z,3.4
2016-03-04T05:09:04.290Z,3.4
2016-03-04T05:10:04.215Z,3.4
2016-03-04T05:11:04.170Z,3.41
2016-03-04T05:12:04.095Z,3.42
2016-03-04T05:13:04.034Z,3.47
2016-03-04T05:14:03.819Z,3.48
2016-03-04T05:15:03.961Z,3.45
2016-03-04T05:16:03.856Z,3.53
2016-03-04T05:17:03.812Z,3.56
2016-03-04T05:18:03.736Z,3.56
2016-03-04T05:19:03.676Z,3.62
2016-03-04T05:20:03.616Z,3.63
2016-03-04T05:21:03.572Z,3.55
2016-03-04T05:22:03.559Z,3.58
2016-03-04T05:23:03.484Z,3.6
2016-03-04T05:24:03.455Z,3.76
2016-03-04T05:25:03.396Z,3.68
2016-03-04T05:26:03.163Z,3.74
2016-03-04T05:27:03.276Z,3.68
2016-03-04T05:28:02.996Z,3.7
2016-03-04T05:29:03.094Z,3.69
2016-03-04T05:30:03.066Z,3.69
2016-03-04T05:31:02.974Z,3.68
2016-03-04T05:32:02.930Z,3.77
2016-03-04T05:33:02.838Z,3.78
2016-03-04T05:34:02.810Z,3.63
2016-03-04T05:35:02.735Z,3.74
2016-03-04T05:36:02.690Z,3.66
2016-03-04T05:37:02.631Z,3.63
2016-03-04T05:38:02.556Z,3.69
2016-03-04T05:39:02.495Z,3.73
2016-03-04T05:40:02.436Z,3.74
2016-03-04T05:41:02.406Z,3.83
2016-03-04T05:42:02.332Z,3.8
2016-03-04T05:43:02.320Z,3.78
2016-03-04T05:44:02.212Z,3.78
2016-03-04T05:45:02.215Z,3.81
2016-03-04T05:46:02.092Z,3.84
2016-03-04T05:47:02.064Z,3.91
2016-03-04T05:48:01.972Z,3.88
2016-03-04T05:49:01.913Z,3.8
2016-03-04T05:50:01.853Z,3.81
2016-03-04T05:51:01.809Z,3.83
2016-03-04T05:52:01.733Z,3.78
2016-03-04T05:53:01.674Z,3.84
2016-03-04T05:54:01.629Z,3.77
2016-03-04T05:55:01.570Z,3.8
2016-03-04T05:56:01.494Z,3.94
2016-03-04T05:57:01.497Z,3.74
2016-03-04T05:58:01.422Z,3.76
2016-03-04T05:59:01.315Z,3.77
2016-03-04T06:00:01.271Z,3.77
2016-03-04T06:01:01.242Z,3.83
2016-03-04T06:02:01.151Z,3.86
2016-03-04T06:03:01.107Z,3.83
2016-03-04T06:04:01.079Z,3.84
2016-03-04T06:05:00.988Z,3.69
2016-03-04T06:06:00.912Z,3.69
2016-03-04T06:07:00.868Z,3.69
2016-03-04T06:08:00.789Z,3.65
2016-03-04T06:09:00.733Z,3.59
2016-03-04T06:10:00.660Z,3.59
2016-03-04T06:11:00.604Z,3.58
2016-03-04T06:12:00.515Z,3.59
2016-03-04T06:13:00.428Z,3.55
2016-03-04T06:14:00.379Z,3.59
2016-03-04T06:15:00.393Z,3.55
2016-03-04T06:16:00.298Z,3.56
2016-03-04T06:17:00.218Z,3.47
2016-03-04T06:18:00.186Z,3.45
2016-03-04T06:19:00.109Z,3.51
2016-03-04T06:20:00.016Z,3.31
2016-03-04T06:21:00.048Z,3.34
2016-03-04T06:21:59.924Z,3.42
2016-03-04T06:22:59.863Z,3.32
2016-03-04T06:23:59.771Z,3.42
2016-03-04T06:24:59.711Z,3.34
2016-03-04T06:25:59.634Z,3.31
2016-03-04T06:26:59.590Z,3.42
2016-03-04T06:27:59.529Z,3.31
2016-03-04T06:28:59.313Z,3.44
2016-03-04T06:29:59.441Z,3.41
2016-03-04T06:30:59.366Z,3.32
2016-03-04T06:31:59.321Z,3.29
2016-03-04T06:32:59.246Z,3.34
2016-03-04T06:33:59.186Z,3.28
2016-03-04T06:34:59.111Z,3.16
2016-03-04T06:35:59.067Z,3.16
2016-03-04T06:36:59.007Z,3.08
2016-03-04T06:37:58.994Z,3.1
2016-03-04T06:38:58.918Z,3.1
2016-03-04T06:39:58.828Z,3.04
2016-03-04T06:40:58.752Z,3.16
2016-03-04T06:41:58.723Z,3.07
2016-03-04T06:42:58.695Z,3.08
2016-03-04T06:43:58.620Z,3.1
2016-03-04T06:44:58.591Z,3.18
2016-03-04T06:45:58.500Z,3.13
2016-03-04T06:46:58.408Z,3.22
2016-03-04T06:47:58.349Z,3.22
2016-03-04T06:48:58.288Z,3.28
2016-03-04T06:49:58.245Z,3.31
2016-03-04T06:50:58.186Z,3.32
2016-03-04T06:51:57.969Z,3.32
2016-03-04T06:52:58.066Z,3.44
2016-03-04T06:53:58.083Z,3.37
2016-03-04T06:54:57.961Z,3.34
2016-03-04T06:55:57.918Z,3.34
2016-03-04T06:56:57.810Z,3.51
2016-03-04T06:57:57.782Z,3.5
2016-03-04T06:58:57.722Z,3.55
2016-03-04T06:59:57.631Z,3.51
2016-03-04T07:00:57.743Z,3.58
2016-03-04T07:01:57.573Z,3.53
2016-03-04T07:02:57.515Z,3.6
2016-03-04T07:03:57.423Z,3.56
2016-03-04T07:04:57.379Z,3.56
2016-03-04T07:05:57.273Z,3.65
2016-03-04T07:06:57.244Z,3.65
2016-03-04T07:07:57.168Z,3.68
2016-03-04T07:08:57.108Z,3.65
2016-03-04T07:09:57.048Z,3.73
2016-03-04T07:10:57.067Z,3.77
2016-03-04T07:11:56.914Z,3.86
2016-03-04T07:12:56.885Z,3.83
2016-03-04T07:13:56.842Z,3.84
2016-03-04T07:14:56.781Z,3.87
2016-03-04T07:15:56.783Z,3.81
2016-03-04T07:16:56.645Z,3.81
2016-03-04T07:17:56.664Z,3.84
2016-03-04T07:18:56.572Z,3.87
2016-03-04T07:19:56.482Z,3.87
2016-03-04T07:20:56.438Z,3.87
2016-03-04T07:21:56.394Z,3.96
2016-03-04T07:22:56.271Z,3.96
2016-03-04T07:23:56.227Z,3.95
2016-03-04T07:24:56.183Z,4.08
2016-03-04T07:25:56.107Z,4.05
2016-03-04T07:26:56.063Z,4.06
2016-03-04T07:27:56.018Z,4.02
2016-03-04T07:28:55.990Z,4.12
2016-03-04T07:29:55.884Z,4.13
2016-03-04T07:30:55.839Z,4.04
2016-03-04T07:31:55.749Z,4.08
2016-03-04T07:32:55.720Z,4.17
2016-03-04T07:33:55.629Z,4.22
2016-03-04T07:34:55.601Z,4.14
2016-03-04T07:35:55.540Z,4.28
2016-03-04T07:36:55.528Z,4.32
2016-03-04T07:37:55.498Z,4.35
2016-03-04T07:38:55.362Z,4.42
2016-03-04T07:39:55.286Z,4.41
2016-03-04T07:40:55.257Z,4.37
2016-03-04T07:41:55.306Z,4.32
2016-03-04T07:42:55.200Z,4.38
2016-03-04T07:43:55.093Z,4.45
2016-03-04T07:44:55.033Z,4.48
2016-03-04T07:45:55.006Z,4.52
2016-03-04T07:46:54.914Z,4.48
2016-03-04T07:47:54.869Z,4.48
2016-03-04T07:48:55.075Z,4.53
2016-03-04T07:49:54.766Z,4.55
2016-03-04T07:50:54.690Z,4.52
2016-03-04T07:51:54.599Z,4.5
2016-03-04T07:52:54.632Z,4.59
2016-03-04T07:53:54.495Z,4.58
2016-03-04T07:54:54.482Z,4.66
2016-03-04T07:55:54.391Z,4.71
2016-03-04T07:56:54.347Z,4.62
2016-03-04T07:57:54.271Z,4.67
2016-03-04T07:58:54.180Z,4.66
2016-03-04T07:59:54.261Z,4.68
2016-03-04T08:00:54.093Z,4.66
2016-03-04T08:01:54.079Z,4.73
2016-03-04T08:02:54.003Z,4.84
2016-03-04T08:03:53.913Z,4.84
2016-03-04T08:04:53.915Z,4.74
2016-03-04T08:05:53.824Z,4.78
2016-03-04T08:06:53.734Z,4.82
2016-03-04T08:07:53.673Z,4.86
2016-03-04T08:08:53.645Z,4.74
2016-03-04T08:09:53.584Z,4.73
2016-03-04T08:10:53.557Z,4.67
2016-03-04T08:11:53.465Z,4.75
2016-03-04T08:12:53.389Z,4.7
2016-03-04T08:13:53.173Z,4.82
2016-03-04T08:14:53.317Z,4.89
2016-03-04T08:15:53.258Z,4.62
2016-03-04T08:16:53.167Z,4.62
2016-03-04T08:17:53.092Z,4.71
2016-03-04T08:18:53.062Z,4.5
2016-03-04T08:19:53.064Z,4.67
2016-03-04T08:20:52.958Z,4.62
2016-03-04T08:21:52.899Z,4.71
2016-03-04T08:22:52.870Z,4.8
2016-03-04T08:23:52.747Z,4.87
2016-03-04T08:24:52.703Z,4.8
2016-03-04T08:25:52.612Z,4.87
2016-03-04T08:26:52.615Z,4.78
2016-03-04T08:27:52.524Z,4.94
2016-03-04T08:28:52.449Z,4.97
2016-03-04T08:29:52.420Z,4.75
2016-03-04T08:30:52.204Z,4.8
2016-03-04T08:31:52.347Z,4.9
2016-03-04T08:32:52.224Z,4.78
2016-03-04T08:33:52.196Z,4.63
2016-03-04T08:34:52.105Z,4.77
2016-03-04T08:35:52.139Z,4.89
2016-03-04T08:36:52.095Z,5.02
2016-03-04T08:37:51.942Z,5.02
2016-03-04T08:38:51.960Z,4.94
2016-03-04T08:39:51.806Z,5.12
2016-03-04T08:40:51.746Z,5.15
2016-03-04T08:41:51.749Z,5.25
2016-03-04T08:42:51.658Z,5.14
2016-03-04T08:43:51.583Z,5.3
2016-03-04T08:44:51.554Z,5.32
2016-03-04T08:45:51.478Z,5.2
2016-03-04T08:46:51.419Z,5.2
2016-03-04T08:47:51.422Z,5.38
2016-03-04T08:48:51.300Z,5.53
2016-03-04T08:49:51.255Z,5.48
2016-03-04T08:50:51.273Z,5.66
2016-03-04T08:51:51.136Z,5.75
2016-03-04T08:52:51.060Z,5.86
2016-03-04T08:53:51.234Z,5.93
2016-03-04T08:54:51.081Z,5.94
2016-03-04T08:55:50.958Z,6.05
2016-03-04T08:56:50.852Z,6.12
2016-03-04T08:57:50.824Z,6.12
2016-03-04T08:58:50.748Z,6.33
2016-03-04T08:59:50.672Z,6.31
2016-03-04T09:00:50.644Z,6.36
2016-03-04T09:01:50.568Z,6.39
2016-03-04T09:02:50.540Z,6.59
2016-03-04T09:03:50.464Z,6.6
2016-03-04T09:04:50.390Z,6.77
2016-03-04T09:05:50.361Z,6.82
2016-03-04T09:06:50.349Z,6.97
2016-03-04T09:07:50.523Z,7.11
2016-03-04T09:08:50.166Z,7.15
2016-03-04T09:09:50.122Z,7.18
2016-03-04T09:10:50.063Z,7.33
2016-03-04T09:11:49.987Z,7.35
2016-03-04T09:12:49.959Z,7.51
2016-03-04T09:13:49.946Z,7.57
2016-03-04T09:14:49.808Z,7.61
2016-03-04T09:15:49.841Z,7.69
2016-03-04T09:16:49.797Z,7.73
2016-03-04T09:17:49.768Z,7.75
2016-03-04T09:18:49.599Z,7.72
2016-03-04T09:19:49.617Z,7.83
2016-03-04T09:20:49.465Z,7.87
2016-03-04T09:21:49.404Z,8.01
2016-03-04T09:22:49.204Z,7.82
2016-03-04T09:23:49.301Z,8.06
2016-03-04T09:24:49.256Z,8.34
2016-03-04T09:25:49.196Z,8.41
2016-03-04T09:26:49.153Z,8.67
2016-03-04T09:27:49.061Z,8.85
2016-03-04T09:28:49.017Z,8.97
2016-03-04T09:29:49.020Z,9.29
2016-03-04T09:30:48.975Z,9.48
2016-03-04T09:31:48.901Z,9.72
2016-03-04T09:32:48.809Z,9.91
2016-03-04T09:33:48.796Z,9.91
2016-03-04T09:34:48.705Z,10.15
2016-03-04T09:35:48.489Z,10.25
2016-03-04T09:36:48.586Z,10.44
2016-03-04T09:37:48.541Z,10.63
2016-03-04T09:38:48.497Z,10.82
2016-03-04T09:39:48.484Z,10.93
2016-03-04T09:40:48.378Z,11.26
2016-03-04T09:41:48.318Z,11.3
2016-03-04T09:42:48.321Z,11.48
2016-03-04T09:43:48.291Z,11.59
2016-03-04T09:44:48.201Z,11.59
2016-03-04T09:45:48.188Z,10.96
2016-03-04T09:46:48.065Z,11.33
2016-03-04T09:47:48.052Z,11.52
2016-03-04T09:48:48.008Z,11.3
2016-03-04T09:49:47.949Z,11.68
2016-03-04T09:50:47.905Z,11.73
2016-03-04T09:51:47.798Z,12.03
2016-03-04T09:52:47.753Z,12.24
2016-03-04T09:53:47.710Z,12.29
2016-03-04T09:54:47.665Z,12.21
2016-03-04T09:55:47.620Z,12.43
2016-03-04T09:56:47.562Z,12.54
2016-03-04T09:57:47.501Z,12.65
2016-03-04T09:58:47.457Z,12.75
2016-03-04T09:59:47.398Z,12.8
2016-03-04T10:00:47.306Z,12.93
2016-03-04T10:01:47.278Z,12.98
2016-03-04T10:02:47.265Z,13.01
2016-03-04T10:03:47.158Z,13.18
2016-03-04T10:04:47.144Z,13.09
2016-03-04T10:05:47.101Z,13.19
2016-03-04T10:06:46.994Z,13.39
2016-03-04T10:07:46.934Z,13.46
2016-03-04T10:08:46.906Z,13.53
2016-03-04T10:09:46.799Z,13.63
2016-03-04T10:10:46.724Z,13.59
2016-03-04T10:11:46.758Z,13.68
2016-03-04T10:12:46.682Z,13.68
2016-03-04T10:13:46.591Z,13.72
2016-03-04T10:14:46.547Z,13.85
2016-03-04T10:15:46.534Z,13.87
2016-03-04T10:16:46.303Z,13.75
2016-03-04T10:17:46.477Z,13.57
2016-03-04T10:18:46.370Z,13.62
2016-03-04T10:19:46.296Z,13.83
2016-03-04T10:20:46.235Z,13.68
2016-03-04T10:21:46.221Z,13.89
2016-03-04T10:22:46.163Z,13.86
2016-03-04T10:23:46.087Z,14.05
2016-03-04T10:24:46.012Z,14.15
2016-03-04T10:25:46.014Z,14.3
2016-03-04T10:26:45.907Z,14.29
2016-03-04T10:27:45.910Z,14.36
2016-03-04T10:28:45.928Z,14.37
2016-03-04T10:29:45.728Z,14.36
2016-03-04T10:30:45.745Z,14.58
2016-03-04T10:31:45.687Z,14.68
2016-03-04T10:32:45.673Z,14.7
2016-03-04T10:33:45.536Z,14.88
2016-03-04T10:34:45.539Z,14.89
2016-03-04T10:35:45.478Z,14.92
2016-03-04T10:36:45.450Z,14.73
2016-03-04T10:37:45.390Z,14.92
2016-03-04T10:38:45.361Z,14.77
2016-03-04T10:39:45.286Z,14.73
2016-03-04T10:40:45.242Z,14.77
2016-03-04T10:41:45.385Z,14.91
2016-03-04T10:42:45.325Z,14.73
2016-03-04T10:43:45.062Z,14.77
2016-03-04T10:44:45.019Z,14.92
2016-03-04T10:45:45.005Z,14.97
2016-03-04T10:46:44.898Z,14.85
2016-03-04T10:47:44.996Z,14.94
2016-03-04T10:48:44.779Z,15.03
2016-03-04T10:49:44.719Z,15.04
2016-03-04T10:50:44.894Z,15.21
2016-03-04T10:51:44.725Z,15.24
2016-03-04T10:52:44.712Z,15.39
2016-03-04T10:53:44.527Z,15.22
2016-03-04T10:54:44.467Z,15.29
2016-03-04T10:55:44.470Z,15.33
2016-03-04T10:56:44.379Z,15.07
2016-03-04T10:57:44.319Z,15.17
2016-03-04T10:58:44.321Z,15.39
2016-03-04T10:59:44.214Z,15.11
2016-03-04T11:00:44.234Z,15.18
2016-03-04T11:01:44.126Z,15.36
2016-03-04T11:02:44.113Z,15.17
2016-03-04T11:03:44.039Z,14.73
2016-03-04T11:04:43.979Z,14.78
2016-03-04T11:05:43.934Z,14.94
2016-03-04T11:06:43.139Z,14.91
2016-03-04T11:07:43.831Z,15.03
2016-03-04T11:08:43.802Z,15.04
2016-03-04T11:09:43.679Z,15.07
2016-03-04T11:10:43.729Z,15.03
2016-03-04T11:11:43.450Z,15.09
2016-03-04T11:12:43.891Z,15.14
2016-03-04T11:13:43.534Z,15.14
2016-03-04T11:14:43.568Z,15.22
2016-03-04T11:15:43.430Z,15.21
2016-03-04T11:16:43.369Z,15.14
2016-03-04T11:17:43.326Z,15.17
2016-03-04T11:18:43.266Z,15.15
2016-03-04T11:19:43.206Z,15.04
2016-03-04T11:20:43.210Z,15.09
2016-03-04T11:21:43.290Z,15.14
2016-03-04T11:22:43.042Z,15.07
2016-03-04T11:23:42.983Z,14.94
2016-03-04T11:24:42.907Z,14.44
2016-03-04T11:25:42.863Z,14.58
2016-03-04T11:26:42.959Z,14.73
2016-03-04T11:27:42.760Z,14.88
2016-03-04T11:28:42.731Z,14.92
2016-03-04T11:29:42.654Z,14.91
2016-03-04T11:30:42.689Z,14.85
2016-03-04T11:31:42.895Z,14.35
2016-03-04T11:32:42.631Z,14.4
2016-03-04T11:33:42.509Z,14.65
2016-03-04T11:34:42.434Z,14.63
2016-03-04T11:35:42.468Z,14.43
2016-03-04T11:36:42.377Z,14.33
2016-03-04T11:37:42.442Z,14.41
2016-03-04T11:38:42.242Z,13.74
2016-03-04T11:39:42.197Z,13.56
2016-03-04T11:40:42.122Z,13.83
2016-03-04T11:41:42.172Z,14.04
2016-03-04T11:42:42.034Z,14
2016-03-04T11:43:41.989Z,13.74
2016-03-04T11:44:42.132Z,13.63
2016-03-04T11:45:41.823Z,13.6
2016-03-04T11:46:41.841Z,13.6
2016-03-04T11:47:41.700Z,13.53
2016-03-04T11:48:41.816Z,13.59
2016-03-04T11:49:41.628Z,13.63
2016-03-04T11:50:41.178Z,13.6
2016-03-04T11:51:41.555Z,13.62
2016-03-04T11:52:41.557Z,13.39
2016-03-04T11:53:41.452Z,13.42
2016-03-04T11:54:41.407Z,13.31
2016-03-04T11:55:41.393Z,13.42
2016-03-04T11:56:41.459Z,13.25
2016-03-04T11:57:41.227Z,13.12
2016-03-04T11:58:41.199Z,13.2
2016-03-04T11:59:41.170Z,13.18
2016-03-04T12:00:41.095Z,13.23
2016-03-04T12:01:41.082Z,13.01
2016-03-04T12:02:40.975Z,13
2016-03-04T12:03:40.915Z,12.87
2016-03-04T12:04:41.106Z,12.94
2016-03-04T12:05:40.859Z,12.91
2016-03-04T12:06:40.939Z,12.97
2016-03-04T12:07:40.754Z,12.98
2016-03-04T12:08:40.710Z,12.79
2016-03-04T12:09:40.603Z,12.82
2016-03-04T12:10:40.512Z,12.87
2016-03-04T12:11:40.531Z,12.75
2016-03-04T12:12:40.658Z,12.76
2016-03-04T12:13:40.755Z,12.49
2016-03-04T12:14:40.320Z,12.2
2016-03-04T12:15:40.260Z,12.28
2016-03-04T12:16:40.216Z,12.15
2016-03-04T12:17:40.188Z,12.35
2016-03-04T12:18:40.175Z,12.36
2016-03-04T12:19:40.396Z,12.39
2016-03-04T12:20:40.055Z,12.37
2016-03-04T12:21:39.980Z,12.47
2016-03-04T12:22:39.935Z,12.35
2016-03-04T12:23:39.860Z,12.39
2016-03-04T12:24:40.315Z,12.45
2016-03-04T12:25:39.788Z,12.4
2016-03-04T12:26:39.727Z,12.43
2016-03-04T12:27:39.714Z,12.42
2016-03-04T12:28:39.608Z,12.4
2016-03-04T12:29:40.063Z,12.39
2016-03-04T12:30:39.801Z,12.36
2016-03-04T12:31:39.475Z,12.37
2016-03-04T12:32:39.369Z,12.29
2016-03-04T12:33:39.559Z,12.28
2016-03-04T12:34:39.295Z,12.24
2016-03-04T12:35:39.252Z,12.27
2016-03-04T12:36:39.222Z,12.1
2016-03-04T12:37:39.195Z,12.15
2016-03-04T12:38:39.134Z,12.22
2016-03-04T12:39:39.044Z,12.12
2016-03-04T12:40:38.968Z,12.2
2016-03-04T12:41:39.002Z,12.18
2016-03-04T12:42:38.708Z,12.13
2016-03-04T12:43:38.054Z,12.13
2016-03-04T12:44:38.761Z,12
2016-03-04T12:45:38.950Z,12.03
2016-03-04T12:46:38.734Z,12.12
2016-03-04T12:47:38.611Z,12
2016-03-04T12:48:38.552Z,12.02
2016-03-04T12:49:38.508Z,11.97
2016-03-04T12:50:38.448Z,11.8
2016-03-04T12:51:38.404Z,11.73
2016-03-04T12:52:38.391Z,11.77
2016-03-04T12:53:38.316Z,11.73
2016-03-04T12:54:38.255Z,11.69
2016-03-04T12:55:38.258Z,11.75
2016-03-04T12:56:38.433Z,11.78
2016-03-04T12:57:38.326Z,11.68
2016-03-04T12:58:38.110Z,11.77
2016-03-04T12:59:37.973Z,11.75
2016-03-04T13:00:37.991Z,11.75
2016-03-04T13:01:37.946Z,11.73
2016-03-04T13:02:37.902Z,11.65
2016-03-04T13:03:37.764Z,11.59
2016-03-04T13:04:37.017Z,11.6
2016-03-04T13:05:37.785Z,11.51
2016-03-04T13:06:37.710Z,11.59
2016-03-04T13:07:37.650Z,11.4
2016-03-04T13:08:37.512Z,11.5
2016-03-04T13:09:37.484Z,11.54
2016-03-04T13:10:37.439Z,11.54
2016-03-04T13:11:37.848Z,11.47
2016-03-04T13:12:37.867Z,11.44
2016-03-04T13:13:37.323Z,11.48